createdAt,value
2018-02-25T00:02:22.921Z,63.60
2018-02-25T00:04:51.257Z,63.20
2018-02-25T00:07:19.641Z,63.20
2018-02-25T00:09:47.970Z,62.70
2018-02-25T00:12:16.282Z,62.90
2018-02-25T00:14:44.675Z,63.50
2018-02-25T00:17:13.881Z,63.90
2018-02-25T00:19:42.199Z,63.80
2018-02-25T00:22:10.543Z,63.70
2018-02-25T00:24:38.880Z,64.40
2018-02-25T00:27:07.277Z,64.80
2018-02-25T00:29:35.651Z,64.80
2018-02-25T00:32:03.999Z,65.40
2018-02-25T00:34:32.331Z,65.60
2018-02-25T00:37:01.568Z,65.80
2018-02-25T00:39:29.901Z,65.00
2018-02-25T00:41:59.334Z,65.40
2018-02-25T00:44:27.667Z,65.40
2018-02-25T00:46:56.758Z,65.90
2018-02-25T00:49:26.533Z,66.00
2018-02-25T00:51:54.864Z,66.00
2018-02-25T00:54:23.967Z,66.30
2018-02-25T00:56:53.038Z,66.50
2018-02-25T00:59:21.366Z,66.40
2018-02-25T01:01:49.675Z,66.80
2018-02-25T01:04:18.031Z,66.20
2018-02-25T01:06:46.366Z,65.50
2018-02-25T01:09:14.840Z,65.90
2018-02-25T01:11:43.185Z,65.70
2018-02-25T01:14:11.576Z,65.60
2018-02-25T01:16:39.935Z,65.30
2018-02-25T01:19:08.249Z,65.60
2018-02-25T01:21:36.592Z,65.50
2018-02-25T01:24:04.931Z,65.40
2018-02-25T01:26:34.774Z,65.60
2018-02-25T01:29:03.121Z,65.70
2018-02-25T01:31:31.462Z,66.10
2018-02-25T01:33:59.810Z,66.00
2018-02-25T01:36:28.925Z,66.10
2018-02-25T01:38:57.280Z,66.10
2018-02-25T01:41:25.629Z,66.60
2018-02-25T01:43:53.958Z,66.30
2018-02-25T01:46:23.026Z,66.50
2018-02-25T01:48:51.354Z,66.50
2018-02-25T01:51:20.239Z,66.70
2018-02-25T01:53:48.585Z,66.50
2018-02-25T01:56:16.938Z,66.80
2018-02-25T01:58:45.261Z,67.00
2018-02-25T02:01:14.511Z,66.00
2018-02-25T02:03:43.094Z,66.00
2018-02-25T02:06:11.442Z,66.00
2018-02-25T02:08:40.561Z,66.00
2018-02-25T02:11:08.936Z,66.00
2018-02-25T02:13:37.303Z,65.60
2018-02-25T02:16:05.673Z,65.70
2018-02-25T02:18:34.872Z,66.30
2018-02-25T02:21:03.975Z,66.20
2018-02-25T02:23:33.127Z,66.70
2018-02-25T02:26:01.496Z,66.70
2018-02-25T02:28:29.830Z,66.90
2018-02-25T02:30:58.985Z,66.90
2018-02-25T02:33:27.594Z,66.50
2018-02-25T02:35:55.997Z,66.50
2018-02-25T02:38:25.176Z,67.10
2018-02-25T02:40:54.433Z,67.00
2018-02-25T02:43:23.818Z,67.00
2018-02-25T02:45:52.978Z,66.70
2018-02-25T02:48:21.361Z,66.60
2018-02-25T02:50:49.719Z,67.00
2018-02-25T02:53:18.107Z,66.70
2018-02-25T02:55:46.439Z,67.20
2018-02-25T02:58:15.571Z,67.40
2018-02-25T03:00:44.733Z,67.50
2018-02-25T03:03:13.122Z,67.20
2018-02-25T03:05:42.392Z,67.30
2018-02-25T03:08:11.569Z,67.10
2018-02-25T03:10:39.923Z,67.00
2018-02-25T03:13:08.297Z,67.30
2018-02-25T03:15:36.623Z,67.30
2018-02-25T03:18:04.965Z,67.50
2018-02-25T03:20:33.324Z,67.30
2018-02-25T03:23:02.410Z,67.70
2018-02-25T03:25:30.728Z,67.70
2018-02-25T03:27:59.051Z,67.80
2018-02-25T03:30:28.396Z,68.10
2018-02-25T03:32:57.492Z,68.30
2018-02-25T03:35:26.671Z,68.10
2018-02-25T03:37:55.035Z,68.00
2018-02-25T03:40:23.351Z,67.90
2018-02-25T03:42:52.523Z,68.30
2018-02-25T03:45:21.000Z,68.10
2018-02-25T03:47:49.339Z,68.50
2018-02-25T03:50:17.795Z,67.90
2018-02-25T03:52:47.029Z,68.80
2018-02-25T03:55:15.352Z,68.80
2018-02-25T03:57:43.701Z,68.50
2018-02-25T04:00:12.021Z,68.90
2018-02-25T04:02:40.372Z,68.40
2018-02-25T04:05:08.796Z,68.10
2018-02-25T04:07:37.882Z,68.50
2018-02-25T04:10:06.342Z,68.40
2018-02-25T04:12:34.680Z,68.20
2018-02-25T04:15:02.996Z,68.00
2018-02-25T04:17:31.363Z,68.20
2018-02-25T04:19:59.712Z,68.10
2018-02-25T04:22:28.692Z,68.20
2018-02-25T04:24:58.805Z,68.70
2018-02-25T04:27:27.142Z,68.70
2018-02-25T04:29:55.529Z,68.90
2018-02-25T04:32:23.953Z,69.00
2018-02-25T04:34:52.386Z,68.80
2018-02-25T04:37:21.502Z,69.30
2018-02-25T04:39:50.898Z,69.30
2018-02-25T04:42:19.360Z,69.40
2018-02-25T04:44:47.705Z,69.50
2018-02-25T04:47:16.052Z,69.50
2018-02-25T04:49:45.183Z,68.90
2018-02-25T04:52:13.616Z,69.20
2018-02-25T04:54:42.022Z,69.60
2018-02-25T04:57:10.463Z,70.00
2018-02-25T04:59:38.822Z,69.80
2018-02-25T05:02:07.226Z,69.30
2018-02-25T05:04:36.256Z,69.10
2018-02-25T05:07:04.736Z,70.00
2018-02-25T05:09:33.100Z,69.90
2018-02-25T05:12:01.514Z,70.00
2018-02-25T05:14:30.781Z,70.20
2018-02-25T05:16:59.127Z,70.10
2018-02-25T05:19:28.233Z,70.20
2018-02-25T05:21:57.372Z,70.20
2018-02-25T05:24:25.753Z,70.20
2018-02-25T05:26:54.154Z,69.90
2018-02-25T05:29:23.280Z,69.80
2018-02-25T05:31:51.687Z,69.80
2018-02-25T05:34:20.138Z,70.10
2018-02-25T05:36:48.540Z,70.10
2018-02-25T05:39:17.746Z,70.30
2018-02-25T05:41:46.863Z,70.20
2018-02-25T05:44:15.289Z,70.20
2018-02-25T05:46:43.687Z,70.40
2018-02-25T05:49:12.100Z,69.90
2018-02-25T05:51:41.220Z,70.90
2018-02-25T05:54:09.580Z,70.80
2018-02-25T05:56:37.914Z,70.90
2018-02-25T05:59:06.292Z,71.30
2018-02-25T06:01:34.644Z,71.10
2018-02-25T06:04:02.976Z,71.30
2018-02-25T06:06:31.332Z,70.50
2018-02-25T06:08:59.668Z,70.60
2018-02-25T06:11:27.994Z,71.00
2018-02-25T06:13:56.324Z,71.20
2018-02-25T06:16:24.653Z,71.40
2018-02-25T06:18:52.981Z,71.40
2018-02-25T06:21:21.363Z,71.20
2018-02-25T06:23:50.475Z,71.50
2018-02-25T06:26:18.859Z,71.50
2018-02-25T06:28:47.248Z,71.30
2018-02-25T06:31:15.650Z,71.40
2018-02-25T06:33:44.070Z,71.60
2018-02-25T06:36:12.578Z,71.30
2018-02-25T06:38:40.982Z,71.60
2018-02-25T06:41:09.396Z,71.70
2018-02-25T06:43:37.791Z,72.10
2018-02-25T06:46:06.160Z,72.40
2018-02-25T06:48:34.490Z,72.40
2018-02-25T06:51:02.842Z,71.90
2018-02-25T06:53:31.301Z,72.00
2018-02-25T06:55:59.759Z,71.80
2018-02-25T06:58:28.121Z,71.90
2018-02-25T07:00:56.573Z,71.70
2018-02-25T07:03:24.972Z,72.20
2018-02-25T07:05:54.137Z,72.30
2018-02-25T07:08:22.488Z,72.20
2018-02-25T07:10:51.748Z,71.80
2018-02-25T07:13:21.090Z,72.10
2018-02-25T07:15:49.536Z,72.80
2018-02-25T07:18:19.204Z,71.00
2018-02-25T07:20:47.623Z,70.90
2018-02-25T07:23:17.428Z,70.80
2018-02-25T07:25:45.816Z,70.80
2018-02-25T07:28:14.194Z,70.90
2018-02-25T07:30:42.593Z,71.10
2018-02-25T07:33:11.372Z,69.90
2018-02-25T07:35:39.773Z,69.50
2018-02-25T07:38:09.007Z,69.50
2018-02-25T07:40:37.586Z,69.40
2018-02-25T07:43:05.999Z,69.50
2018-02-25T07:45:34.380Z,69.40
2018-02-25T07:48:02.794Z,69.30
2018-02-25T07:50:31.931Z,69.40
2018-02-25T07:53:00.354Z,69.30
2018-02-25T07:55:29.542Z,69.10
2018-02-25T07:57:59.419Z,68.50
2018-02-25T08:00:27.768Z,68.90
2018-02-25T08:02:56.102Z,68.90
2018-02-25T08:05:24.475Z,68.40
2018-02-25T08:07:53.752Z,67.80
2018-02-25T08:10:22.155Z,67.40
2018-02-25T08:12:50.531Z,66.50
2018-02-25T08:15:19.112Z,66.40
2018-02-25T08:17:47.469Z,66.60
2018-02-25T08:20:15.960Z,66.60
2018-02-25T08:22:45.105Z,65.70
2018-02-25T08:25:13.516Z,65.70
2018-02-25T08:27:41.885Z,64.80
2018-02-25T08:30:10.652Z,64.40
2018-02-25T08:32:39.059Z,63.80
2018-02-25T08:35:07.512Z,63.30
2018-02-25T08:37:35.938Z,63.00
2018-02-25T08:40:05.089Z,62.20
2018-02-25T08:42:33.448Z,62.20
2018-02-25T08:45:02.915Z,61.30
2018-02-25T08:47:35.753Z,61.20
2018-02-25T08:50:04.227Z,61.10
2018-02-25T08:52:36.228Z,61.00
2018-02-25T08:55:05.542Z,61.40
2018-02-25T08:57:36.882Z,60.50
2018-02-25T09:00:06.527Z,60.00
2018-02-25T09:02:34.882Z,60.10
2018-02-25T09:05:03.263Z,60.30
2018-02-25T09:07:33.810Z,59.80
2018-02-25T09:10:03.834Z,59.70
2018-02-25T09:12:32.225Z,59.30
2018-02-25T09:15:00.553Z,58.20
2018-02-25T09:17:28.933Z,57.90
2018-02-25T09:19:57.297Z,57.50
2018-02-25T09:22:25.635Z,56.60
2018-02-25T09:24:53.996Z,56.60
2018-02-25T09:27:22.498Z,56.10
2018-02-25T09:29:50.865Z,55.30
2018-02-25T09:32:19.200Z,54.40
2018-02-25T09:34:47.564Z,54.00
2018-02-25T09:37:16.700Z,53.40
2018-02-25T09:39:45.117Z,53.30
2018-02-25T09:42:13.503Z,52.50
2018-02-25T09:44:42.709Z,52.50
2018-02-25T09:47:11.107Z,52.50
2018-02-25T09:49:40.423Z,52.30
2018-02-25T09:52:09.880Z,51.90
2018-02-25T09:54:38.237Z,51.80
2018-02-25T09:57:06.706Z,51.00
2018-02-25T09:59:35.067Z,51.60
2018-02-25T10:02:03.511Z,51.40
2018-02-25T10:04:31.810Z,50.70
2018-02-25T10:07:00.152Z,50.30
2018-02-25T10:09:28.480Z,49.50
2018-02-25T10:11:56.873Z,49.70
2018-02-25T10:14:25.210Z,48.70
2018-02-25T10:16:53.546Z,48.20
2018-02-25T10:19:22.631Z,48.00
2018-02-25T10:21:50.960Z,48.00
2018-02-25T10:24:19.307Z,47.20
2018-02-25T10:26:47.642Z,46.20
2018-02-25T10:29:16.000Z,46.20
2018-02-25T10:31:44.307Z,46.00
2018-02-25T10:34:12.628Z,46.20
2018-02-25T10:36:41.694Z,45.30
2018-02-25T10:39:10.055Z,45.30
2018-02-25T10:41:38.467Z,44.90
2018-02-25T10:44:07.641Z,44.60
2018-02-25T10:46:35.960Z,44.60
2018-02-25T10:49:05.048Z,43.50
2018-02-25T10:51:33.445Z,43.50
2018-02-25T10:54:02.547Z,43.30
2018-02-25T10:56:31.747Z,43.30
2018-02-25T10:59:00.834Z,43.20
2018-02-25T11:01:29.920Z,42.60
2018-02-25T11:03:58.231Z,42.40
2018-02-25T11:06:27.330Z,41.90
2018-02-25T11:08:55.660Z,41.90
2018-02-25T11:11:24.009Z,44.90
2018-02-25T11:13:52.308Z,60.00
2018-02-25T11:16:20.709Z,88.10
2018-02-25T11:18:49.029Z,89.90
2018-02-25T11:21:17.336Z,90.50
2018-02-25T11:23:45.663Z,90.90
2018-02-25T11:26:13.973Z,90.50
2018-02-25T11:28:43.049Z,90.70
2018-02-25T11:31:11.381Z,90.70
2018-02-25T11:33:39.689Z,91.60
2018-02-25T11:36:08.001Z,91.70
2018-02-25T11:38:37.082Z,91.10
2018-02-25T11:41:05.415Z,91.10
2018-02-25T11:43:33.770Z,90.40
2018-02-25T11:46:02.871Z,88.70
2018-02-25T11:48:31.949Z,89.80
2018-02-25T11:51:01.027Z,87.10
2018-02-25T11:53:29.349Z,87.20
2018-02-25T11:55:57.663Z,85.60
2018-02-25T11:58:26.005Z,85.00
2018-02-25T12:00:55.152Z,81.90
2018-02-25T12:03:23.473Z,81.90
2018-02-25T12:05:52.551Z,76.80
2018-02-25T12:08:20.870Z,76.80
2018-02-25T12:10:49.923Z,70.90
2018-02-25T12:13:18.302Z,70.90
2018-02-25T12:15:46.625Z,69.50
2018-02-25T12:18:15.708Z,64.20
2018-02-25T12:20:44.005Z,64.10
2018-02-25T12:23:12.335Z,63.60
2018-02-25T12:25:41.507Z,63.00
2018-02-25T12:28:09.801Z,63.00
2018-02-25T12:30:38.123Z,60.90
2018-02-25T12:33:06.454Z,59.80
2018-02-25T12:35:36.857Z,60.00
2018-02-25T12:38:05.938Z,55.70
2018-02-25T12:40:34.232Z,55.70
2018-02-25T12:43:03.322Z,46.30
2018-02-25T12:45:32.415Z,46.70
2018-02-25T12:48:00.770Z,46.60
2018-02-25T12:50:29.089Z,46.20
2018-02-25T12:56:42.346Z,44.20
2018-02-25T12:59:11.439Z,39.90
2018-02-25T13:01:39.775Z,39.50
2018-02-25T13:04:08.755Z,37.20
2018-02-25T13:06:37.091Z,36.60
2018-02-25T13:09:05.436Z,36.00
2018-02-25T13:11:33.779Z,35.20
2018-02-25T13:14:02.880Z,34.90
2018-02-25T13:16:31.198Z,34.70
2018-02-25T13:18:59.522Z,33.00
2018-02-25T13:21:27.843Z,32.70
2018-02-25T13:23:56.331Z,31.70
2018-02-25T13:26:24.669Z,32.30
2018-02-25T13:28:53.755Z,30.70
2018-02-25T13:31:22.077Z,30.00
2018-02-25T13:33:50.399Z,29.70
2018-02-25T13:36:19.504Z,28.40
2018-02-25T13:38:47.821Z,28.40
2018-02-25T13:41:17.713Z,28.30
2018-02-25T13:43:46.039Z,28.20
2018-02-25T13:46:14.357Z,27.90
2018-02-25T13:48:42.787Z,27.60
2018-02-25T13:51:11.100Z,26.90
2018-02-25T13:53:39.458Z,27.50
2018-02-25T13:56:07.793Z,27.90
2018-02-25T13:58:36.147Z,27.90
2018-02-25T14:01:04.460Z,27.00
2018-02-25T14:03:32.792Z,26.90
2018-02-25T14:06:01.119Z,26.20
2018-02-25T14:08:29.441Z,26.20
2018-02-25T14:10:57.767Z,26.10
2018-02-25T14:13:26.074Z,25.90
2018-02-25T14:15:55.155Z,26.00
2018-02-25T14:18:23.459Z,26.00
2018-02-25T14:20:52.529Z,25.20
2018-02-25T14:23:20.842Z,25.20
2018-02-25T14:25:49.933Z,25.90
2018-02-25T14:28:19.047Z,25.60
2018-02-25T14:30:47.378Z,25.60
2018-02-25T14:33:15.697Z,25.70
2018-02-25T14:35:44.788Z,25.70
2018-02-25T14:38:13.914Z,26.30
2018-02-25T14:40:42.230Z,25.80
2018-02-25T14:43:10.595Z,25.30
2018-02-25T14:45:38.899Z,25.10
2018-02-25T14:48:07.240Z,25.20
2018-02-25T14:50:35.578Z,25.40
2018-02-25T14:53:04.665Z,24.80
2018-02-25T14:55:32.987Z,24.70
2018-02-25T14:58:02.093Z,25.10
2018-02-25T15:00:30.402Z,25.10
2018-02-25T15:02:58.721Z,24.80
2018-02-25T15:05:27.077Z,24.10
2018-02-25T15:07:55.397Z,24.30
2018-02-25T15:10:24.747Z,24.60
2018-02-25T15:12:53.088Z,24.60
2018-02-25T15:15:22.199Z,24.10
2018-02-25T15:17:50.632Z,24.10
2018-02-25T15:20:18.999Z,24.30
2018-02-25T15:22:47.310Z,24.40
2018-02-25T15:25:15.759Z,23.90
2018-02-25T15:27:44.158Z,23.90
2018-02-25T15:30:12.471Z,24.60
2018-02-25T15:32:41.605Z,23.90
2018-02-25T15:35:09.929Z,23.90
2018-02-25T15:37:38.252Z,23.90
2018-02-25T15:40:06.592Z,23.80
2018-02-25T15:42:34.933Z,24.10
2018-02-25T15:45:03.281Z,23.50
2018-02-25T15:47:31.633Z,23.40
2018-02-25T15:50:00.111Z,23.10
2018-02-25T15:52:28.563Z,23.40
2018-02-25T15:54:57.005Z,23.50
2018-02-25T15:57:26.144Z,23.60
2018-02-25T15:59:54.484Z,23.60
2018-02-25T16:02:23.557Z,23.70
2018-02-25T16:04:51.910Z,23.70
2018-02-25T16:07:20.398Z,24.20
2018-02-25T16:09:48.708Z,24.60
2018-02-25T16:12:17.033Z,24.80
2018-02-25T16:14:45.337Z,24.90
2018-02-25T16:17:13.663Z,25.00
2018-02-25T16:19:41.983Z,25.20
2018-02-25T16:22:10.493Z,25.50
2018-02-25T16:24:38.819Z,25.80
2018-02-25T16:27:08.480Z,26.00
2018-02-25T16:29:36.801Z,26.00
2018-02-25T16:32:05.911Z,27.60
2018-02-25T16:34:35.010Z,28.00
2018-02-25T16:37:04.998Z,28.00
2018-02-25T16:39:33.335Z,28.60
2018-02-25T16:42:01.649Z,29.00
2018-02-25T16:44:30.747Z,30.30
2018-02-25T16:46:59.081Z,30.40
2018-02-25T16:49:27.405Z,31.20
2018-02-25T16:51:55.723Z,31.90
2018-02-25T16:54:24.852Z,33.90
2018-02-25T16:56:53.181Z,33.80
2018-02-25T16:59:21.483Z,34.40
2018-02-25T17:01:50.653Z,35.90
2018-02-25T17:04:19.005Z,35.90
2018-02-25T17:06:47.319Z,36.50
2018-02-25T17:09:15.647Z,37.40
2018-02-25T17:11:44.006Z,38.90
2018-02-25T17:14:13.128Z,39.40
2018-02-25T17:16:41.567Z,39.90
2018-02-25T17:19:09.886Z,40.60
2018-02-25T17:21:38.203Z,41.40
2018-02-25T17:24:06.506Z,42.00
2018-02-25T17:26:34.840Z,42.40
2018-02-25T17:29:03.192Z,42.80
2018-02-25T17:31:32.251Z,44.20
2018-02-25T17:34:00.553Z,44.20
2018-02-25T17:36:28.873Z,44.20
2018-02-25T17:38:57.348Z,44.90
2018-02-25T17:41:25.660Z,45.10
2018-02-25T17:43:53.971Z,45.30
2018-02-25T17:46:22.317Z,46.20
2018-02-25T17:48:50.656Z,46.50
2018-02-25T17:51:19.726Z,47.40
2018-02-25T17:53:48.934Z,47.30
2018-02-25T17:56:17.253Z,47.60
2018-02-25T17:58:45.579Z,48.70
2018-02-25T18:01:13.911Z,48.40
2018-02-25T18:03:42.218Z,48.60
2018-02-25T18:06:10.531Z,48.90
2018-02-25T18:08:38.843Z,49.10
2018-02-25T18:11:08.051Z,49.70
2018-02-25T18:13:36.374Z,49.60
2018-02-25T18:16:04.687Z,50.00
2018-02-25T18:18:33.783Z,50.30
2018-02-25T18:21:02.099Z,50.20
2018-02-25T18:23:30.424Z,51.20
2018-02-25T18:25:58.772Z,50.50
2018-02-25T18:28:27.104Z,51.00
2018-02-25T18:30:55.419Z,51.20
2018-02-25T18:33:23.735Z,51.80
2018-02-25T18:35:52.058Z,52.30
2018-02-25T18:38:21.139Z,53.30
2018-02-25T18:40:49.464Z,53.20
2018-02-25T18:43:17.796Z,54.30
2018-02-25T18:45:46.139Z,54.90
2018-02-25T18:48:14.486Z,54.70
2018-02-25T18:50:43.606Z,55.90
2018-02-25T18:53:12.000Z,55.80
2018-02-25T18:55:40.341Z,55.70
2018-02-25T18:58:09.455Z,56.20
2018-02-25T19:00:37.771Z,56.10
2018-02-25T19:03:06.131Z,56.20
2018-02-25T19:05:34.445Z,56.80
2018-02-25T19:08:02.802Z,57.20
2018-02-25T19:10:31.121Z,57.00
2018-02-25T19:12:59.449Z,57.60
2018-02-25T19:15:27.796Z,58.60
2018-02-25T19:17:56.988Z,59.00
2018-02-25T19:20:25.315Z,59.00
2018-02-25T19:22:53.642Z,59.10
2018-02-25T19:25:21.959Z,59.50
2018-02-25T19:27:50.319Z,59.80
2018-02-25T19:30:18.639Z,60.80
2018-02-25T19:32:46.968Z,61.00
2018-02-25T19:35:15.289Z,61.90
2018-02-25T19:37:49.193Z,62.80
2018-02-25T19:40:23.078Z,63.10
2018-02-25T19:42:52.173Z,63.80
2018-02-25T19:45:21.263Z,64.00
2018-02-25T19:47:50.380Z,64.70
2018-02-25T19:50:19.465Z,65.40
2018-02-25T19:52:47.793Z,66.10
2018-02-25T19:55:16.129Z,65.80
2018-02-25T19:57:44.486Z,68.10
2018-02-25T20:00:12.817Z,68.40
2018-02-25T20:02:41.148Z,70.00
2018-02-25T20:05:09.477Z,71.40
2018-02-25T20:07:37.807Z,71.20
2018-02-25T20:10:06.117Z,72.10
2018-02-25T20:12:34.473Z,72.00
2018-02-25T20:15:02.916Z,71.80
2018-02-25T20:17:31.253Z,72.00
2018-02-25T20:19:59.614Z,71.60
2018-02-25T20:22:27.961Z,72.10
2018-02-25T20:24:56.309Z,72.50
2018-02-25T20:27:25.396Z,75.20
2018-02-25T20:29:53.718Z,74.30
2018-02-25T20:32:22.053Z,74.90
2018-02-25T20:34:50.383Z,76.90
2018-02-25T20:37:18.702Z,77.30
2018-02-25T20:39:47.027Z,77.30
2018-02-25T20:42:15.367Z,77.60
2018-02-25T20:44:43.690Z,78.30
2018-02-25T20:47:12.021Z,78.40
2018-02-25T20:49:40.370Z,78.60
2018-02-25T20:52:08.690Z,79.10
2018-02-25T20:54:37.026Z,79.50
2018-02-25T20:57:05.393Z,79.70
2018-02-25T20:59:33.701Z,80.30
2018-02-25T21:02:02.068Z,80.00
2018-02-25T21:04:30.402Z,80.20
2018-02-25T21:06:58.717Z,79.80
2018-02-25T21:09:27.042Z,79.70
2018-02-25T21:11:56.119Z,79.20
2018-02-25T21:14:24.470Z,79.20
2018-02-25T21:16:53.562Z,79.20
2018-02-25T21:19:22.676Z,79.80
2018-02-25T21:21:50.997Z,79.80
2018-02-25T21:24:19.377Z,80.30
2018-02-25T21:26:47.656Z,80.10
2018-02-25T21:29:15.990Z,80.40
2018-02-25T21:31:44.310Z,80.30
2018-02-25T21:34:12.661Z,80.20
2018-02-25T21:36:40.980Z,80.50
2018-02-25T21:39:09.315Z,80.60
2018-02-25T21:41:37.684Z,80.40
2018-02-25T21:44:06.776Z,80.90
2018-02-25T21:46:35.873Z,81.10
2018-02-25T21:49:04.961Z,81.00
2018-02-25T21:51:34.084Z,81.20
2018-02-25T21:54:03.225Z,81.10
2018-02-25T21:56:37.220Z,81.10
2018-02-25T21:59:11.097Z,81.30
2018-02-25T22:01:45.756Z,82.10
2018-02-25T22:04:14.124Z,82.00
2018-02-25T22:06:42.477Z,82.40
2018-02-25T22:09:11.555Z,83.20
2018-02-25T22:11:40.611Z,83.10
2018-02-25T22:14:08.957Z,83.10
2018-02-25T22:16:38.139Z,83.40
2018-02-25T22:19:06.468Z,83.30
2018-02-25T22:21:34.790Z,83.30
2018-02-25T22:24:03.958Z,84.30
2018-02-25T22:26:32.269Z,83.40
2018-02-25T22:29:00.615Z,83.90
2018-02-25T22:31:28.928Z,84.70
2018-02-25T22:33:57.246Z,84.00
2018-02-25T22:36:26.371Z,84.60
2018-02-25T22:38:54.705Z,84.60
2018-02-25T22:41:23.812Z,84.30
2018-02-25T22:43:52.172Z,84.30
2018-02-25T22:46:20.488Z,83.30
2018-02-25T22:48:48.847Z,82.70
2018-02-25T22:51:17.931Z,83.20
2018-02-25T22:53:46.260Z,83.20
2018-02-25T22:56:14.592Z,83.50
2018-02-25T22:58:42.932Z,83.00
2018-02-25T23:01:11.256Z,82.70
2018-02-25T23:03:39.559Z,82.60
2018-02-25T23:06:07.899Z,82.50
2018-02-25T23:08:36.229Z,82.70
2018-02-25T23:11:04.608Z,83.10
2018-02-25T23:13:33.072Z,83.40
2018-02-25T23:16:01.374Z,83.70
2018-02-25T23:18:29.722Z,84.00
2018-02-25T23:20:58.065Z,84.30
2018-02-25T23:23:26.388Z,84.60
2018-02-25T23:25:54.708Z,84.50
2018-02-25T23:28:23.038Z,84.30
2018-02-25T23:30:51.348Z,84.70
2018-02-25T23:33:20.460Z,85.20
2018-02-25T23:35:48.788Z,85.10
2018-02-25T23:38:17.162Z,85.10
2018-02-25T23:40:45.522Z,84.80
2018-02-25T23:43:13.870Z,84.30
2018-02-25T23:45:42.968Z,83.40
2018-02-25T23:48:12.050Z,83.80
2018-02-25T23:50:40.377Z,83.70
2018-02-25T23:53:08.704Z,83.70
2018-02-25T23:55:37.030Z,84.10
2018-02-25T23:58:05.352Z,84.10
